createdAt,value
2023-03-05T00:00:55.581Z,2.20
2023-03-05T00:06:17.243Z,1.92
2023-03-05T00:11:38.980Z,1.63
2023-03-05T00:17:00.305Z,1.45
2023-03-05T00:22:21.776Z,2.20
2023-03-05T00:27:43.198Z,1.80
2023-03-05T00:33:04.954Z,1.42
2023-03-05T00:38:25.947Z,1.63
2023-03-05T00:43:48.371Z,1.80
2023-03-05T00:49:09.611Z,1.48
2023-03-05T00:54:30.859Z,1.50
2023-03-05T00:59:52.417Z,1.15
2023-03-05T01:05:15.309Z,1.42
2023-03-05T01:10:36.951Z,1.10
2023-03-05T01:15:58.102Z,1.13
2023-03-05T01:21:22.019Z,1.42
2023-03-05T01:26:43.154Z,1.20
2023-03-05T01:32:05.454Z,1.25
2023-03-05T01:37:27.049Z,1.38
2023-03-05T01:42:55.398Z,1.20
2023-03-05T01:48:16.915Z,1.27
2023-03-05T01:53:38.468Z,1.40
2023-03-05T01:59:01.934Z,1.20
2023-03-05T02:04:32.571Z,1.55
2023-03-05T02:09:53.785Z,1.17
2023-03-05T02:15:16.164Z,1.48
2023-03-05T02:21:07.602Z,0.90
2023-03-05T02:26:28.645Z,1.05
2023-03-05T02:31:50.163Z,1.00
2023-03-05T02:37:11.690Z,1.08
2023-03-05T02:42:33.739Z,0.88
2023-03-05T02:47:55.775Z,1.65
2023-03-05T02:53:17.404Z,1.17
2023-03-05T02:58:39.100Z,1.48
2023-03-05T03:04:00.647Z,1.30
2023-03-05T03:09:21.962Z,1.10
2023-03-05T03:14:43.744Z,1.55
2023-03-05T03:20:08.670Z,1.50
2023-03-05T03:25:30.917Z,1.20
2023-03-05T03:30:52.132Z,1.45
2023-03-05T03:36:14.293Z,1.20
2023-03-05T03:41:43.222Z,2.38
2023-03-05T03:47:04.715Z,1.42
2023-03-05T03:52:26.838Z,1.63
2023-03-05T03:57:48.308Z,1.65
2023-03-05T04:03:10.007Z,1.75
2023-03-05T04:08:31.290Z,1.70
2023-03-05T04:13:52.591Z,1.55
2023-03-05T04:19:14.937Z,1.60
2023-03-05T04:24:36.204Z,1.50
2023-03-05T04:29:57.573Z,1.63
2023-03-05T04:35:19.167Z,1.30
2023-03-05T04:40:40.971Z,2.03
2023-03-05T04:46:02.356Z,1.10
2023-03-05T04:51:23.983Z,1.40
2023-03-05T04:56:45.026Z,1.60
2023-03-05T05:02:06.500Z,1.27
2023-03-05T05:07:27.926Z,1.73
2023-03-05T05:12:49.027Z,1.42
2023-03-05T05:18:10.511Z,1.67
2023-03-05T05:23:31.904Z,1.38
2023-03-05T05:28:53.316Z,1.20
2023-03-05T05:34:15.722Z,1.50
2023-03-05T05:39:37.060Z,1.30
2023-03-05T05:44:58.417Z,1.50
2023-03-05T05:50:22.616Z,1.15
2023-03-05T06:01:14.968Z,1.52
2023-03-05T06:06:36.398Z,1.10
2023-03-05T06:11:57.840Z,1.38
2023-03-05T06:17:29.848Z,1.10
2023-03-05T06:22:51.396Z,1.40
2023-03-05T06:28:12.781Z,1.45
2023-03-05T06:33:35.299Z,1.60
2023-03-05T06:38:57.914Z,1.40
2023-03-05T06:44:19.204Z,1.67
2023-03-05T06:49:40.951Z,1.23
2023-03-05T06:55:02.092Z,1.30
2023-03-05T07:00:23.753Z,1.50
2023-03-05T07:05:45.327Z,1.35
2023-03-05T07:11:15.576Z,1.40
2023-03-05T07:16:36.943Z,1.13
2023-03-05T07:21:58.085Z,1.30
2023-03-05T07:27:19.427Z,1.27
2023-03-05T07:32:41.493Z,1.23
2023-03-05T07:38:02.877Z,0.95
2023-03-05T07:43:24.389Z,1.00
2023-03-05T07:48:45.980Z,1.27
2023-03-05T07:54:07.139Z,1.00
2023-03-05T07:59:28.627Z,1.00
2023-03-05T08:04:50.100Z,0.80
2023-03-05T08:10:11.943Z,0.90
2023-03-05T08:15:33.436Z,1.10
2023-03-05T08:20:54.744Z,1.05
2023-03-05T08:26:20.982Z,0.95
2023-03-05T08:31:46.243Z,0.70
2023-03-05T08:37:07.748Z,0.98
2023-03-05T08:42:29.177Z,1.42
2023-03-05T08:47:50.668Z,1.40
2023-03-05T08:53:12.246Z,0.82
2023-03-05T08:58:33.833Z,1.08
2023-03-05T09:03:55.146Z,0.90
2023-03-05T09:09:16.867Z,1.23
2023-03-05T09:14:38.052Z,0.60
2023-03-05T09:19:59.492Z,0.70
2023-03-05T09:25:21.316Z,0.88
2023-03-05T09:30:43.805Z,0.73
2023-03-05T09:36:15.919Z,1.08
2023-03-05T09:42:13.248Z,0.90
2023-03-05T09:48:24.400Z,0.80
2023-03-05T09:54:03.506Z,1.02
2023-03-05T09:59:35.441Z,0.60
2023-03-05T10:05:50.443Z,1.17
2023-03-05T10:11:41.458Z,0.80
2023-03-05T10:17:58.974Z,0.52
2023-03-05T10:24:14.175Z,0.90
2023-03-05T10:29:53.217Z,0.80
2023-03-05T10:35:35.796Z,0.60
2023-03-05T10:40:57.287Z,0.82
2023-03-05T10:46:22.059Z,0.60
2023-03-05T10:51:54.796Z,0.73
2023-03-05T10:57:29.695Z,0.60
2023-03-05T11:02:54.017Z,0.85
2023-03-05T11:08:35.216Z,0.60
2023-03-05T11:14:02.015Z,0.50
2023-03-05T11:19:34.129Z,0.30
2023-03-05T11:25:17.387Z,0.50
2023-03-05T11:30:40.813Z,1.08
2023-03-05T11:36:39.864Z,0.70
2023-03-05T11:42:15.352Z,0.60
2023-03-05T11:47:48.239Z,0.60
2023-03-05T11:53:24.606Z,0.70
2023-03-05T11:59:03.239Z,0.80
2023-03-05T12:04:25.891Z,0.63
2023-03-05T12:09:52.278Z,0.70
2023-03-05T12:15:25.799Z,0.60
2023-03-05T12:21:07.129Z,0.90
2023-03-05T12:27:03.401Z,0.68
2023-03-05T12:32:24.878Z,0.63
2023-03-05T12:37:51.943Z,0.50
2023-03-05T12:43:33.273Z,0.65
2023-03-05T12:48:54.615Z,0.75
2023-03-05T12:54:36.323Z,0.50
2023-03-05T13:00:10.836Z,0.40
2023-03-05T13:11:05.129Z,0.80
2023-03-05T13:16:31.654Z,0.70
2023-03-05T13:22:09.404Z,0.73
2023-03-05T13:27:32.614Z,0.40
2023-03-05T13:33:00.205Z,0.40
2023-03-05T13:38:47.667Z,0.45
2023-03-05T13:44:21.475Z,0.47
2023-03-05T13:49:43.118Z,0.93
2023-03-05T13:55:14.653Z,0.60
2023-03-05T14:00:38.441Z,0.50
2023-03-05T14:06:01.476Z,0.40
2023-03-05T14:11:23.114Z,0.57
2023-03-05T14:16:44.622Z,0.50
2023-03-05T14:22:06.926Z,1.02
2023-03-05T14:27:34.569Z,0.70
2023-03-05T14:32:56.655Z,0.60
2023-03-05T14:38:25.198Z,1.95
2023-03-05T14:43:46.405Z,0.90
2023-03-05T14:49:07.960Z,0.57
2023-03-05T14:54:36.497Z,0.60
2023-03-05T14:59:57.819Z,0.60
2023-03-05T15:05:20.187Z,0.70
2023-03-05T15:10:41.804Z,1.00
2023-03-05T15:16:05.093Z,0.50
2023-03-05T15:21:26.655Z,0.50
2023-03-05T15:26:50.139Z,1.00
2023-03-05T15:32:11.749Z,0.77
2023-03-05T15:37:33.228Z,1.13
2023-03-05T15:42:59.569Z,1.25
2023-03-05T15:48:20.732Z,0.80
2023-03-05T15:53:42.223Z,1.00
2023-03-05T15:59:03.795Z,0.60
2023-03-05T16:04:25.160Z,0.90
2023-03-05T16:09:49.700Z,1.10
2023-03-05T16:15:15.699Z,1.30
2023-03-05T16:20:37.088Z,0.80
2023-03-05T16:25:59.636Z,1.00
2023-03-05T16:31:21.332Z,0.85
2023-03-05T16:36:49.804Z,0.80
2023-03-05T16:42:11.333Z,0.68
2023-03-05T16:47:33.058Z,0.80
2023-03-05T16:52:54.538Z,1.33
2023-03-05T16:58:15.952Z,1.20
2023-03-05T17:03:37.895Z,1.27
2023-03-05T17:08:59.635Z,1.08
2023-03-05T17:14:21.549Z,1.00
2023-03-05T17:19:42.946Z,0.90
2023-03-05T17:25:05.121Z,1.80
2023-03-05T17:30:26.556Z,2.58
2023-03-05T17:35:48.093Z,1.10
2023-03-05T17:41:09.726Z,1.35
2023-03-05T17:46:31.278Z,1.02
2023-03-05T17:51:52.652Z,1.00
2023-03-05T17:57:14.020Z,1.33
2023-03-05T18:02:35.463Z,1.15
2023-03-05T18:07:57.336Z,1.55
2023-03-05T18:13:18.437Z,0.82
2023-03-05T18:18:39.914Z,1.25
2023-03-05T18:24:01.246Z,1.00
2023-03-05T18:29:22.688Z,1.10
2023-03-05T18:34:44.094Z,1.50
2023-03-05T18:40:07.398Z,1.38
2023-03-05T18:45:30.310Z,1.23
2023-03-05T18:50:53.440Z,1.42
2023-03-05T18:56:14.826Z,1.48
2023-03-05T19:01:36.200Z,1.73
2023-03-05T19:06:57.668Z,1.75
2023-03-05T19:12:21.813Z,1.63
2023-03-05T19:17:43.423Z,3.88
2023-03-05T19:23:04.571Z,1.63
2023-03-05T19:28:25.910Z,2.05
2023-03-05T19:33:48.402Z,1.80
2023-03-05T19:39:09.929Z,3.70
2023-03-05T19:44:31.790Z,6.85
2023-03-05T19:49:53.228Z,2.38
2023-03-05T19:55:14.684Z,1.20
2023-03-05T20:00:36.849Z,1.60
2023-03-05T20:05:58.210Z,3.55
2023-03-05T20:11:21.264Z,2.53
2023-03-05T20:16:43.546Z,1.83
2023-03-05T20:22:05.012Z,2.67
2023-03-05T20:27:26.657Z,3.88
2023-03-05T20:32:48.218Z,3.88
2023-03-05T20:38:26.638Z,5.53
2023-03-05T20:43:50.458Z,3.28
2023-03-05T20:54:32.958Z,3.05
2023-03-05T20:59:54.541Z,3.25
2023-03-05T21:05:15.959Z,1.95
2023-03-05T21:10:38.554Z,1.90
2023-03-05T21:15:59.663Z,1.88
2023-03-05T21:21:21.194Z,2.15
2023-03-05T21:26:42.726Z,2.13
2023-03-05T21:32:04.088Z,2.08
2023-03-05T21:37:25.511Z,1.50
2023-03-05T21:42:47.822Z,2.15
2023-03-05T21:48:10.029Z,1.83
2023-03-05T21:53:31.423Z,1.55
2023-03-05T21:58:53.670Z,1.20
2023-03-05T22:04:15.375Z,1.55
2023-03-05T22:09:36.720Z,1.48
2023-03-05T22:14:58.229Z,1.50
2023-03-05T22:20:19.850Z,1.40
2023-03-05T22:25:42.797Z,1.63
2023-03-05T22:31:04.571Z,1.23
2023-03-05T22:36:25.897Z,2.10
2023-03-05T22:41:47.270Z,1.50
2023-03-05T22:47:08.536Z,1.48
2023-03-05T22:52:29.655Z,1.50
2023-03-05T22:57:51.136Z,1.73
2023-03-05T23:03:12.564Z,2.15
2023-03-05T23:08:33.846Z,1.70
2023-03-05T23:13:55.263Z,1.85
2023-03-05T23:19:16.764Z,1.90
2023-03-05T23:24:39.099Z,1.58
2023-03-05T23:30:21.227Z,1.70
2023-03-05T23:35:51.778Z,1.70
2023-03-05T23:41:12.812Z,1.67
2023-03-05T23:46:34.175Z,1.77
2023-03-05T23:51:55.289Z,1.92
2023-03-05T23:57:16.976Z,1.50
